Latest Weather Observations for Charleville

IDQ60801

Issued at 11:02 pm EST Wednesday 1 April 2015 (issued every 30 minutes, with the page automatically refreshed every 10 minutes)

About weather observations | Map of weather stations | Latest weather observations for QLD | Other Formats
Station Details ID: 044021 Name: CHARLEVILLE AERO Lat: -26.41 Lon: 146.26 Height: 301.6 m
Data from the previous 72 hours. | See also: Recent months at Charleville
Date/Time
EST
Temp
°C
App
Temp
°C
Dew
Point
Rel
Hum
%
Delta-T
°C
Wind Press
QNH
hPa
Press
MSL
hPa
Rain
since 9 am
mm
Dir
 
Spd
km/h
Gust
km/h
Spd
kts
Gust
kts
01/11:00pm 21.1 20.2 12.7 58 4.8 ESE 9 9 5 5 1017.7 - 0.0
01/10:30pm 21.8 21.3 12.6 56 5.3 ESE 7 7 4 4 1017.8 - 0.0
01/10:00pm 22.4 21.4 12.3 52 5.8 ESE 9 11 5 6 1017.9 - 0.0
01/09:30pm 22.7 21.7 12.2 51 6.0 E 9 11 5 6 1017.9 - 0.0
01/09:00pm 23.1 22.1 12.4 51 6.2 E 9 9 5 5 1017.7 1016.9 0.0
01/08:30pm 23.7 22.8 12.7 50 6.4 E 9 9 5 5 1017.4 - 0.0
01/08:00pm 24.4 23.3 12.0 46 7.2 E 9 11 5 6 1016.9 - 0.0
01/07:30pm 25.3 24.2 12.1 43 7.6 E 9 11 5 6 1016.6 - 0.0
01/07:00pm 26.3 25.1 11.7 40 8.4 E 9 13 5 7 1016.2 - 0.0
01/06:30pm 27.3 25.1 10.8 35 9.4 E 13 19 7 10 1015.9 - 0.0
01/06:00pm 28.0 25.5 11.0 34 9.8 ESE 15 19 8 10 1015.6 1014.7 0.0
01/05:30pm 28.6 25.0 10.5 32 10.4 ESE 20 30 11 16 1015.4 - 0.0
01/05:00pm 28.4 26.4 10.0 31 10.5 E 11 15 6 8 1015.2 - 0.0
01/04:30pm 29.0 24.6 10.5 31 10.6 E 24 32 13 17 1015.1 - 0.0
01/04:00pm 29.6 26.0 9.7 29 11.3 E 19 28 10 15 1015.2 - 0.0
01/03:30pm 29.2 27.0 10.9 32 10.6 NE 13 20 7 11 1015.3 - 0.0
01/03:00pm 28.3 25.1 11.3 34 9.9 ESE 19 26 10 14 1015.7 1014.8 0.0
01/02:30pm 28.9 25.7 11.3 33 10.2 ESE 19 30 10 16 1016.0 - 0.0
01/02:00pm 29.4 26.6 11.5 33 10.5 E 17 28 9 15 1016.5 - 0.0
01/01:30pm 28.0 25.2 12.5 38 9.2 ESE 19 28 10 15 1016.8 - 0.0
01/01:00pm 28.8 28.0 12.9 37 9.5 E 9 19 5 10 1017.1 - 0.0
01/12:30pm 27.4 25.0 12.7 40 8.7 ENE 17 32 9 17 1017.8 - 0.0
01/12:00pm 28.4 25.6 13.2 39 9.1 NE 20 26 11 14 1018.4 1017.5 0.0
01/11:30am 27.3 25.8 13.1 41 8.4 NNE 13 17 7 9 1019.0 - 0.0
01/11:00am 26.7 24.6 13.7 44 7.8 E 17 24 9 13 1019.3 - 0.0
01/10:30am 26.4 24.7 13.7 45 7.6 NNE 15 20 8 11 1019.6 - 0.0
01/10:00am 25.7 23.6 13.7 47 7.2 NNE 17 26 9 14 1020.1 - 0.0
01/09:30am 25.1 22.8 14.2 50 6.5 NE 19 26 10 14 1020.3 - 0.0
01/09:00am 24.1 22.2 14.2 54 5.9 NE 17 24 9 13 1020.1 1018.6 0.0
01/08:30am 23.5 21.9 14.9 58 5.2 E 17 24 9 13 1020.0 - 0.0
01/08:00am 22.3 21.0 14.8 62 4.5 ENE 15 24 8 13 1019.9 - 0.0
01/07:30am 20.5 20.0 15.0 70 3.3 ESE 11 13 6 7 1019.8 - 0.0
01/07:00am 18.4 18.3 14.9 80 2.1 ESE 9 11 5 6 1019.3 - 0.0
01/06:30am 16.1 17.1 14.4 90 1.0 W 2 6 1 3 1019.1 - 0.0
01/06:00am 17.3 17.2 15.0 86 1.3 E 9 11 5 6 1018.9 1018.0 0.0
01/05:30am 16.9 17.2 14.9 88 1.2 E 7 11 4 6 1018.3 - 0.0
01/05:00am 16.7 16.9 14.7 88 1.2 ENE 7 9 4 5 1018.2 - 0.0
01/04:30am 17.3 17.8 15.0 86 1.4 E 6 7 3 4 1018.2 - 0.0
01/04:00am 17.8 17.9 15.4 86 1.4 E 9 9 5 5 1018.0 - 0.0
01/03:30am 18.9 19.5 15.8 82 1.9 ESE 7 9 4 5 1018.3 - 0.0
01/03:00am 19.1 19.5 16.2 83 1.8 ENE 9 11 5 6 1018.5 1017.6 0.0
01/02:30am 19.4 20.5 16.5 83 1.8 ENE 6 7 3 4 1018.7 - 0.0
01/02:00am 19.8 20.3 16.5 81 2.0 NE 9 11 5 6 1018.9 - 0.0
01/01:30am 19.9 20.8 16.6 81 2.0 NE 7 9 4 5 1019.1 - 0.0
01/01:00am 20.6 21.5 16.6 78 2.5 NE 7 9 4 5 1019.4 - 0.0
01/12:30am 20.7 21.6 16.6 77 2.5 ENE 7 9 4 5 1019.6 - 0.0
01/12:00am 20.7 21.5 16.3 76 2.7 ENE 7 9 4 5 1019.7 1018.2 0.0
 
Date/Time
EST
Temp
°C
App
Temp
°C
Dew
Point
Rel
Hum
%
Delta-T
°C
Wind Press
QNH
hPa
Press
MSL
hPa
Rain
since 9 am
mm
Dir
 
Spd
km/h
Gust
km/h
Spd
kts
Gust
kts
31/11:30pm 20.7 20.6 16.1 75 2.8 E 11 13 6 7 1019.8 - 0.0
31/11:00pm 20.8 20.6 15.8 73 3.0 E 11 13 6 7 1019.9 - 0.0
31/10:30pm 20.7 20.7 15.3 71 3.2 E 9 11 5 6 1020.2 - 0.0
31/10:00pm 20.6 21.2 15.3 71 3.2 E 6 7 3 4 1020.2 - 0.0
31/09:30pm 20.9 21.3 15.3 70 3.4 ESE 7 7 4 4 1020.2 - 0.0
31/09:00pm 21.5 21.6 15.4 68 3.7 ESE 9 11 5 6 1019.9 1018.4 0.0
31/08:30pm 21.7 19.6 14.6 64 4.2 ESE 19 24 10 13 1019.7 - 0.0
31/08:00pm 22.6 22.7 15.4 64 4.4 N 9 11 5 6 1019.1 - 0.0
31/07:30pm 22.8 22.7 14.9 61 4.7 NNE 9 11 5 6 1018.8 - 0.0
31/07:00pm 23.3 22.3 14.5 57 5.3 NNE 13 17 7 9 1018.6 - 0.0
31/06:30pm 24.1 22.5 13.8 52 6.1 N 15 19 8 10 1018.2 - 0.0
31/06:00pm 25.4 22.8 13.7 48 7.0 NNE 20 28 11 15 1017.9 1016.5 0.0
31/05:30pm 26.0 23.4 14.8 50 6.8 NNE 22 32 12 17 1017.8 - 0.0
31/05:05pm 25.6 21.5 14.9 51 6.5 NE 30 48 16 26 1017.2 - 0.0
31/05:00pm 25.9 20.8 14.8 50 6.7 NE 35 48 19 26 1017.0 - 0.0
31/04:55pm 28.2 22.0 12.8 38 9.2 NE 37 48 20 26 1016.9 - 0.0
31/04:30pm 29.6 26.9 11.6 33 10.6 N 17 24 9 13 1016.1 - 0.0
31/04:00pm 30.0 28.7 12.4 34 10.5 NNE 11 17 6 9 1016.0 - 0.0
31/03:30pm 29.1 26.5 13.1 37 9.6 ENE 19 24 10 13 1016.1 - 0.0
31/03:00pm 27.8 23.8 11.9 37 9.3 ENE 24 32 13 17 1016.8 1015.3 0.0
31/02:46pm 26.8 21.4 12.3 40 8.5 E 32 50 17 27 1017.1 - 0.0
31/02:39pm 26.4 20.0 11.9 40 8.4 E 37 50 20 27 1017.1 - 0.0
31/02:36pm 27.0 22.2 11.8 38 8.8 ESE 28 46 15 25 1017.1 - 0.0
31/02:30pm 27.0 22.0 12.2 39 8.7 ESE 30 46 16 25 1017.4 - 0.0
31/02:28pm 28.3 23.2 10.5 33 10.2 ESE 28 46 15 25 1017.3 - 0.0
31/02:27pm 28.3 23.1 10.2 32 10.3 ESE 28 41 15 22 1017.3 - 0.0
31/02:00pm 29.4 29.3 14.0 39 9.4 NW 7 15 4 8 1017.2 - 0.0
31/01:30pm 29.1 28.0 14.4 40 9.0 N 13 20 7 11 1017.8 - 0.0
31/01:00pm 30.1 29.7 14.2 38 9.7 WNW 9 17 5 9 1018.7 - 0.0
31/12:30pm 29.8 29.0 14.0 38 9.6 WNW 11 20 6 11 1019.4 - 0.0
31/12:00pm 29.3 27.8 15.2 42 8.7 NNW 17 26 9 14 1020.1 1018.6 0.0
31/11:30am 28.0 27.8 15.6 46 7.7 NNE 11 19 6 10 1020.7 - 0.0
31/11:00am 27.4 27.5 15.6 48 7.3 W 9 15 5 8 1021.3 - 0.0
31/10:30am 27.1 26.9 15.7 49 7.1 N 11 19 6 10 1021.5 - 0.0
31/10:00am 26.4 26.4 16.2 53 6.3 ENE 11 17 6 9 1021.7 - 0.0
31/09:30am 25.7 25.2 15.8 54 6.1 ENE 13 17 7 9 1021.8 - 0.0
31/09:00am 25.2 24.8 16.3 57 5.5 ENE 13 17 7 9 1021.7 1020.2 0.2
31/08:30am 23.9 23.2 16.5 63 4.6 E 15 19 8 10 1021.5 - 0.2
31/08:00am 22.1 21.2 16.8 72 3.3 E 17 20 9 11 1021.2 - 0.2
31/07:30am 20.4 20.7 17.0 81 2.1 E 11 17 6 9 1020.7 - 0.2
31/07:00am 18.4 19.0 16.7 90 1.0 SE 9 13 5 7 1020.4 - 0.2
31/06:30am 17.6 18.5 16.7 94 0.5 SSE 7 9 4 5 1020.0 - 0.2
31/06:00am 17.7 18.9 16.8 94 0.5 SSE 6 7 3 4 1019.6 1018.1 0.2
31/05:30am 17.8 19.7 16.8 94 0.6 ESE 2 9 1 5 1019.3 - 0.2
31/05:00am 18.1 20.5 17.0 93 0.7 CALM 0 0 0 0 1019.1 - 0.2
31/04:30am 18.4 19.5 17.2 93 0.7 ENE 7 11 4 6 1018.7 - 0.2
31/04:00am 18.1 20.5 17.0 93 0.7 CALM 0 0 0 0 1018.7 - 0.2
31/03:30am 18.5 19.9 17.3 93 0.7 SE 6 7 3 4 1018.7 - 0.2
31/03:00am 18.9 20.0 17.2 90 1.0 SSE 7 9 4 5 1018.8 1017.3 0.2
31/02:30am 19.6 20.9 17.6 88 1.2 SSE 7 9 4 5 1019.2 - 0.2
31/02:00am 19.9 21.3 17.8 88 1.3 SE 7 9 4 5 1019.4 - 0.2
31/01:30am 20.6 23.5 18.1 85 1.6 CALM 0 0 0 0 1019.6 - 0.2
31/01:00am 20.8 22.6 18.3 85 1.6 NE 6 7 3 4 1019.8 - 0.2
31/12:30am 20.8 22.6 18.3 85 1.6 ENE 6 7 3 4 1020.2 - 0.2
31/12:00am 20.8 22.4 18.3 85 1.6 NE 7 9 4 5 1020.4 1019.0 0.2
 
Date/Time
EST
Temp
°C
App
Temp
°C
Dew
Point
Rel
Hum
%
Delta-T
°C
Wind Press
QNH
hPa
Press
MSL
hPa
Rain
since 9 am
mm
Dir
 
Spd
km/h
Gust
km/h
Spd
kts
Gust
kts
30/11:30pm 20.7 22.4 18.4 87 1.5 NE 7 9 4 5 1020.8 - 0.2
30/11:00pm 20.9 22.6 18.4 85 1.6 N 7 9 4 5 1021.4 - 0.2
30/10:30pm 20.9 22.2 18.4 85 1.6 NNE 9 13 5 7 1021.5 - 0.2
30/10:00pm 21.0 22.3 18.4 85 1.6 NNE 9 13 5 7 1021.8 - 0.2
30/09:30pm 21.2 22.0 18.2 83 1.9 NNE 11 17 6 9 1021.8 - 0.2
30/09:00pm 21.4 22.1 17.9 80 2.2 ENE 11 13 6 7 1021.5 1020.1 0.2
30/08:30pm 21.8 22.0 17.7 77 2.6 ENE 13 17 7 9 1021.3 - 0.2
30/08:00pm 21.8 21.6 17.7 77 2.6 E 15 19 8 10 1021.3 - 0.2
30/07:30pm 21.7 21.5 18.6 82 2.0 E 17 22 9 12 1021.1 - 0.2
30/07:00pm 21.8 22.7 20.0 89 1.2 NE 15 22 8 12 1021.0 - 0.2
30/06:30pm 21.6 22.5 20.1 91 1.0 NNE 15 17 8 9 1020.9 - 0.2
30/06:00pm 22.9 23.2 19.5 81 2.2 N 17 22 9 12 1020.4 1019.0 0.0
30/05:30pm 25.6 24.7 17.7 61 5.0 NE 19 26 10 14 1020.0 - 0.0
30/05:00pm 26.1 25.1 16.7 56 5.9 E 17 20 9 11 1018.5 - 0.0
30/04:30pm 26.4 24.4 15.6 51 6.7 E 20 28 11 15 1017.7 - 0.0
30/04:00pm 25.4 23.9 16.2 56 5.7 ESE 19 28 10 15 1017.7 - 0.0
30/03:30pm 27.4 24.4 16.8 52 6.7 SE 28 39 15 21 1017.5 - 0.0
30/03:12pm 30.5 26.8 14.9 38 9.7 S 28 43 15 23 1017.3 - 0.0
30/03:00pm 30.9 30.9 16.3 41 9.2 NW 11 15 6 8 1017.2 1015.7 0.0
30/02:30pm 29.6 29.8 17.7 48 7.7 WSW 13 19 7 10 1017.8 - 0.0
30/02:00pm 30.5 30.3 16.6 43 8.8 SSW 13 22 7 12 1017.8 - 0.0
30/01:30pm 31.0 31.6 16.8 42 9.1 NW 9 22 5 12 1018.3 - 0.0
30/01:00pm 30.1 30.3 16.7 44 8.5 NW 11 17 6 9 1019.0 - 0.0
30/12:30pm 29.0 29.3 17.9 51 7.1 WNW 13 19 7 10 1019.6 - 0.0
30/12:00pm 29.3 30.1 17.3 48 7.6 NNE 9 15 5 8 1020.3 1018.9 0.0
30/11:30am 27.5 28.7 16.9 52 6.7 NNW 6 11 3 6 1021.1 - 0.0
30/11:00am 26.5 27.9 16.3 53 6.4 N 4 9 2 5 1021.7 - 0.0
30/10:30am 26.0 26.9 16.7 56 5.8 N 7 11 4 6 1022.0 - 0.0
30/10:00am 25.5 27.6 16.3 56 5.7 CALM 0 0 0 0 1021.9 - 0.0
30/09:30am 25.5 26.2 12.3 43 7.7 CALM 0 0 0 0 1022.1 - 0.0
30/09:00am 25.4 23.1 5.7 28 10.2 SW 7 9 4 5 1022.0 1020.5 0.0
30/08:30am 25.5 22.5 4.0 25 10.8 SSW 9 13 5 7 1021.7 - 0.0
30/08:00am 25.1 22.2 4.8 27 10.4 SSW 9 13 5 7 1021.1 - 0.0
30/07:30am 23.2 19.9 2.3 25 10.1 ENE 9 11 5 6 1020.1 - 0.0
30/07:14am 23.3 20.4 2.7 26 10.0 E 7 9 4 5 1020.2 - 0.0
30/07:00am 22.8 20.3 4.8 31 9.1 SSE 7 9 4 5 1020.4 - 0.0
30/06:51am 22.7 19.7 4.0 29 9.3 SSE 9 9 5 5 1020.4 - 0.0
30/06:30am 22.2 20.7 8.6 41 7.3 S 6 7 3 4 1020.3 - 0.0
30/06:00am 22.1 20.5 8.8 42 7.2 SSW 7 9 4 5 1019.6 1018.1 0.0
30/05:30am 22.2 21.8 8.2 40 7.5 CALM 0 0 0 0 1018.9 - 0.0
30/05:00am 22.5 22.1 8.2 40 7.6 CALM 0 0 0 0 1018.7 - 0.0
30/04:30am 22.9 22.3 7.5 37 8.1 CALM 0 0 0 0 1018.5 - 0.0
30/04:00am 23.5 23.1 8.4 38 8.1 CALM 0 0 0 0 1018.2 - 0.0
30/03:30am 24.1 22.4 6.1 31 9.3 WSW 4 7 2 4 1018.4 - 0.0
30/03:00am 24.5 23.7 6.6 31 9.4 CALM 0 0 0 0 1017.7 1016.3 0.0
30/02:30am 25.1 22.7 5.2 27 10.2 WSW 7 9 4 5 1018.6 - 0.0
30/02:00am 25.8 22.2 3.2 23 11.3 N 11 17 6 9 1018.4 - 0.0
30/01:30am 26.3 23.3 4.1 24 11.3 ESE 9 11 5 6 1018.9 - 0.0
30/01:00am 26.3 23.0 2.7 21 11.7 E 9 11 5 6 1019.5 - 0.0
30/12:30am 26.5 23.3 3.2 22 11.7 E 9 11 5 6 1019.6 - 0.0
30/12:00am 26.1 23.5 4.1 24 11.1 ENE 7 13 4 7 1019.9 1018.4 0.0
 
Date/Time
EST
Temp
°C
App
Temp
°C
Dew
Point
Rel
Hum
%
Delta-T
°C
Wind Press
QNH
hPa
Press
MSL
hPa
Rain
since 9 am
mm
Dir
 
Spd
km/h
Gust
km/h
Spd
kts
Gust
kts
29/11:30pm 26.4 25.1 4.0 23 11.4 CALM 0 0 0 0 1020.3 - 0.0

Other Formats:

Comma delimited format used in spreadsheet applications
http://www.bom.gov.au/fwo/IDQ60801/IDQ60801.94510.axf

JavaScript Object Notation format (JSON) in row-major order
http://www.bom.gov.au/fwo/IDQ60801/IDQ60801.94510.json